createdAt,value
2019-01-24T00:00:33.362Z,96641.65
2019-01-24T00:03:03.340Z,96645.27
2019-01-24T00:05:35.786Z,96646.91
2019-01-24T00:09:18.353Z,96649.86
2019-01-24T00:19:27.499Z,96658.39
2019-01-24T00:21:57.875Z,96662.08
2019-01-24T00:24:28.133Z,96668.23
2019-01-24T00:26:58.412Z,96667.88
2019-01-24T00:29:28.617Z,96676.00
2019-01-24T00:31:58.914Z,96670.31
2019-01-24T00:35:41.880Z,96677.06
2019-01-24T01:16:13.109Z,96719.42
2019-01-24T01:28:37.922Z,96735.81
2019-01-24T01:41:34.596Z,96750.64
2019-01-24T01:44:05.031Z,96750.44
2019-01-24T01:53:17.780Z,96763.75
2019-01-24T01:55:47.690Z,96758.25
2019-01-24T01:58:17.612Z,96763.54
2019-01-24T02:00:47.822Z,96756.34
2019-01-24T02:03:17.973Z,96765.41
2019-01-24T02:05:48.682Z,96770.84
2019-01-24T02:08:19.246Z,96766.58
2019-01-24T02:10:49.477Z,96771.44
2019-01-24T02:13:19.624Z,96775.12
2019-01-24T02:15:49.926Z,96773.73
2019-01-24T02:18:20.264Z,96779.07
2019-01-24T02:20:50.400Z,96778.96
2019-01-24T02:23:20.439Z,96787.41
2019-01-24T02:25:50.758Z,96785.17
2019-01-24T02:28:20.659Z,96791.50
2019-01-24T02:30:50.652Z,96791.59
2019-01-24T02:33:21.042Z,96795.43
2019-01-24T02:35:51.043Z,96796.42
2019-01-24T02:38:21.178Z,96791.55
2019-01-24T02:44:36.142Z,96803.56
2019-01-24T02:47:06.164Z,96806.92
2019-01-24T02:49:36.354Z,96813.34
2019-01-24T02:52:06.558Z,96813.50
2019-01-24T03:06:04.290Z,96824.73
2019-01-24T03:18:29.662Z,96823.88
2019-01-24T03:21:00.098Z,96828.27
2019-01-24T03:23:30.481Z,96829.24
2019-01-24T03:26:00.371Z,96826.30
2019-01-24T03:28:30.546Z,96823.60
2019-01-24T03:31:00.715Z,96828.00
2019-01-24T03:33:31.371Z,96840.84
2019-01-24T03:36:01.978Z,96841.20
2019-01-24T03:38:31.898Z,96838.75
2019-01-24T03:41:02.161Z,96848.11
2019-01-24T03:43:32.285Z,96851.27
2019-01-24T03:46:02.205Z,96852.58
2019-01-24T03:48:32.740Z,96856.81
2019-01-24T03:51:02.636Z,96852.03
2019-01-24T03:53:32.706Z,96850.33
2019-01-24T03:56:02.716Z,96851.89
2019-01-24T03:58:33.037Z,96850.27
2019-01-24T04:01:03.545Z,96859.79
2019-01-24T04:03:36.555Z,96861.64
2019-01-24T04:06:06.750Z,96862.45
2019-01-24T04:08:37.356Z,96860.96
2019-01-24T04:11:07.499Z,96857.80
2019-01-24T04:13:37.426Z,96856.81
2019-01-24T04:16:07.354Z,96859.05
2019-01-24T04:18:37.990Z,96868.34
2019-01-24T04:21:07.903Z,96872.11
2019-01-24T04:23:37.978Z,96864.52
2019-01-24T04:26:08.513Z,96870.77
2019-01-24T04:28:38.740Z,96869.06
2019-01-24T04:31:08.952Z,96872.22
2019-01-24T04:33:39.144Z,96875.37
2019-01-24T04:36:09.130Z,96879.25
2019-01-24T04:38:39.372Z,96882.16
2019-01-24T04:41:09.282Z,96874.03
2019-01-24T04:43:39.242Z,96883.61
2019-01-24T04:46:09.172Z,96882.91
2019-01-24T04:48:39.083Z,96893.09
2019-01-24T04:51:09.263Z,96900.05
2019-01-24T04:53:39.433Z,96905.05
2019-01-24T04:56:09.630Z,96901.22
2019-01-24T04:58:39.533Z,96912.22
2019-01-24T05:01:09.698Z,96913.50
2019-01-24T05:03:39.619Z,96918.87
2019-01-24T05:10:02.514Z,96927.28
2019-01-24T05:12:32.673Z,96931.64
2019-01-24T05:15:02.955Z,96934.09
2019-01-24T05:17:32.931Z,96936.69
2019-01-24T05:20:03.133Z,96938.28
2019-01-24T05:23:45.745Z,96943.72
2019-01-24T05:26:16.001Z,96938.56
2019-01-24T05:28:46.485Z,96951.48
2019-01-24T05:31:16.830Z,96953.23
2019-01-24T05:33:47.102Z,96952.89
2019-01-24T05:36:17.145Z,96956.40
2019-01-24T05:38:47.119Z,96953.00
2019-01-24T05:41:17.205Z,96957.50
2019-01-24T05:43:47.462Z,96960.23
2019-01-24T05:46:17.662Z,96970.38
2019-01-24T05:49:45.368Z,96975.05
2019-01-24T05:52:19.654Z,96974.57
2019-01-24T05:54:47.554Z,96979.08
2019-01-24T05:57:17.829Z,96980.56
2019-01-24T05:59:48.148Z,96981.70
2019-01-24T06:06:09.478Z,96991.74
2019-01-24T06:08:39.892Z,96993.59
2019-01-24T06:11:10.113Z,96997.93
2019-01-24T06:16:57.323Z,97000.66
2019-01-24T06:19:27.338Z,97009.62
2019-01-24T06:21:57.321Z,97010.01
2019-01-24T06:24:27.506Z,97010.88
2019-01-24T06:26:57.924Z,97010.88
2019-01-24T06:29:28.095Z,97015.16
2019-01-24T06:31:58.041Z,97020.79
2019-01-24T06:34:27.955Z,97021.92
2019-01-24T06:36:57.831Z,97020.05
2019-01-24T06:39:28.178Z,97021.52
2019-01-24T06:41:58.476Z,97029.52
2019-01-24T06:44:28.394Z,97031.73
2019-01-24T06:46:58.361Z,97031.27
2019-01-24T06:49:28.455Z,97036.94
2019-01-24T06:51:59.373Z,97035.45
2019-01-24T06:54:29.595Z,97033.87
2019-01-24T06:56:59.714Z,97033.95
2019-01-24T06:59:29.712Z,97040.30
2019-01-24T07:01:59.694Z,97042.67
2019-01-24T07:04:29.811Z,97052.00
2019-01-24T07:07:00.061Z,97053.41
2019-01-24T07:09:29.993Z,97056.36
2019-01-24T07:11:59.936Z,97051.64
2019-01-24T07:14:30.493Z,97060.51
2019-01-24T07:17:01.263Z,97069.13
2019-01-24T07:19:31.506Z,97069.66
2019-01-24T07:22:01.686Z,97071.45
2019-01-24T07:24:31.631Z,97074.64
2019-01-24T07:27:01.561Z,97081.09
2019-01-24T07:29:31.564Z,97084.13
2019-01-24T07:32:01.467Z,97087.63
2019-01-24T07:34:32.094Z,97091.80
2019-01-24T07:37:03.154Z,97099.61
2019-01-24T07:39:33.284Z,97096.79
2019-01-24T07:42:03.206Z,97095.20
2019-01-24T07:44:33.979Z,97092.36
2019-01-24T07:47:04.004Z,97103.66
2019-01-24T07:49:34.162Z,97103.75
2019-01-24T07:52:04.189Z,97107.67
2019-01-24T07:54:34.376Z,97107.75
2019-01-24T07:57:04.631Z,97109.11
2019-01-24T07:59:35.276Z,97112.00
2019-01-24T08:02:05.479Z,97115.81
2019-01-24T08:04:35.395Z,97121.61
2019-01-24T08:07:05.779Z,97122.50
2019-01-24T08:09:36.015Z,97133.91
2019-01-24T08:12:07.733Z,97137.86
2019-01-24T08:14:37.935Z,97146.61
2019-01-24T08:17:07.923Z,97150.25
2019-01-24T08:19:37.941Z,97146.91
2019-01-24T08:22:07.931Z,97147.59
2019-01-24T08:24:38.127Z,97154.00
2019-01-24T08:27:08.292Z,97156.38
2019-01-24T08:29:38.541Z,97162.27
2019-01-24T08:32:08.572Z,97164.13
2019-01-24T08:38:29.747Z,97166.98
2019-01-24T08:40:59.652Z,97173.63
2019-01-24T08:43:29.828Z,97174.98
2019-01-24T08:49:44.809Z,97171.14
2019-01-24T08:52:14.720Z,97175.18
2019-01-24T08:54:44.883Z,97174.69
2019-01-24T09:01:06.333Z,97174.23
2019-01-24T09:13:57.592Z,97173.88
2019-01-24T09:16:27.519Z,97180.39
2019-01-24T09:18:57.741Z,97182.55
2019-01-24T09:21:27.729Z,97184.40
2019-01-24T09:23:58.118Z,97177.16
2019-01-24T09:26:28.507Z,97184.12
2019-01-24T09:28:58.429Z,97189.16
2019-01-24T09:31:28.596Z,97195.05
2019-01-24T09:33:58.525Z,97195.00
2019-01-24T09:36:29.321Z,97201.91
2019-01-24T09:38:59.916Z,97213.20
2019-01-24T09:41:30.363Z,97209.69
2019-01-24T09:44:00.526Z,97205.64
2019-01-24T09:46:30.433Z,97212.08
2019-01-24T09:49:00.877Z,97212.48
2019-01-24T09:51:30.878Z,97215.94
2019-01-24T09:54:00.820Z,97222.57
2019-01-24T09:56:30.991Z,97225.06
2019-01-24T09:59:01.078Z,97224.09
2019-01-24T10:01:31.079Z,97235.02
2019-01-24T10:04:01.011Z,97235.88
2019-01-24T10:06:36.256Z,97235.42
2019-01-24T10:09:04.588Z,97241.95
2019-01-24T10:11:34.950Z,97244.05
2019-01-24T10:14:05.598Z,97249.08
2019-01-24T10:16:35.836Z,97254.06
2019-01-24T10:19:06.281Z,97255.92
2019-01-24T10:21:36.258Z,97255.97
2019-01-24T10:24:06.375Z,97249.42
2019-01-24T10:26:36.296Z,97252.28
2019-01-24T10:29:06.362Z,97251.78
2019-01-24T10:31:36.459Z,97248.61
2019-01-24T10:34:06.903Z,97255.65
2019-01-24T10:36:42.864Z,97250.97
2019-01-24T10:39:10.356Z,97257.91
2019-01-24T10:41:40.521Z,97257.20
2019-01-24T10:44:10.431Z,97260.27
2019-01-24T10:46:40.627Z,97260.31
2019-01-24T10:49:10.857Z,97249.78
2019-01-24T10:51:40.805Z,97253.84
2019-01-24T10:54:10.870Z,97251.50
2019-01-24T10:56:41.030Z,97254.53
2019-01-24T10:59:11.075Z,97259.42
2019-01-24T11:01:41.384Z,97267.09
2019-01-24T11:04:11.440Z,97268.65
2019-01-24T11:06:41.805Z,97268.33
2019-01-24T11:09:11.809Z,97264.99
2019-01-24T11:11:41.849Z,97269.19
2019-01-24T11:14:12.055Z,97268.66
2019-01-24T11:16:42.142Z,97276.48
2019-01-24T11:19:12.172Z,97274.40
2019-01-24T11:21:42.188Z,97282.05
2019-01-24T11:28:03.358Z,97272.86
2019-01-24T11:40:59.178Z,97269.45
2019-01-24T11:43:29.267Z,97276.87
2019-01-24T11:45:59.447Z,97264.80
2019-01-24T11:48:29.435Z,97266.94
2019-01-24T11:50:59.607Z,97266.90
2019-01-24T11:53:30.838Z,97267.09
2019-01-24T11:59:52.879Z,97270.13
2019-01-24T12:02:22.875Z,97274.59
2019-01-24T12:11:30.398Z,97271.34
2019-01-24T12:14:00.670Z,97273.81
2019-01-24T12:16:31.451Z,97273.47
2019-01-24T12:19:01.644Z,97280.95
2019-01-24T12:21:31.885Z,97276.73
2019-01-24T12:24:01.889Z,97276.22
2019-01-24T12:26:31.819Z,97278.82
2019-01-24T12:29:02.003Z,97269.69
2019-01-24T12:31:31.972Z,97266.14
2019-01-24T12:34:02.380Z,97270.34
2019-01-24T12:36:32.789Z,97273.49
2019-01-24T12:39:03.223Z,97269.19
2019-01-24T12:41:33.397Z,97273.00
2019-01-24T12:47:44.167Z,97276.42
2019-01-24T12:50:15.993Z,97275.05
2019-01-24T12:52:46.188Z,97276.89
2019-01-24T12:55:16.751Z,97284.30
2019-01-24T12:57:47.143Z,97282.67
2019-01-24T13:00:25.294Z,97287.61
2019-01-24T13:02:55.396Z,97282.78
2019-01-24T13:05:25.428Z,97284.05
2019-01-24T13:07:55.498Z,97286.84
2019-01-24T13:10:26.715Z,97288.75
2019-01-24T13:12:56.956Z,97291.19
2019-01-24T13:15:30.071Z,97287.85
2019-01-24T13:18:00.059Z,97283.91
2019-01-24T13:20:30.522Z,97289.08
2019-01-24T13:23:00.468Z,97283.25
2019-01-24T13:25:33.737Z,97286.53
2019-01-24T13:28:03.919Z,97287.05
2019-01-24T13:30:35.137Z,97287.39
2019-01-24T13:33:06.635Z,97288.05
2019-01-24T13:35:37.214Z,97290.49
2019-01-24T13:38:07.891Z,97288.13
2019-01-24T13:40:38.368Z,97288.64
2019-01-24T13:43:09.137Z,97296.07
2019-01-24T13:45:40.378Z,97293.19
2019-01-24T13:48:11.099Z,97299.86
2019-01-24T13:50:41.277Z,97304.36
2019-01-24T13:53:11.608Z,97301.30
2019-01-24T13:55:41.833Z,97309.27
2019-01-24T13:58:12.326Z,97312.23
2019-01-24T14:00:43.230Z,97319.41
2019-01-24T14:03:58.845Z,97315.52
2019-01-24T14:06:28.770Z,97311.25
2019-01-24T14:08:58.801Z,97316.85
2019-01-24T14:11:28.907Z,97323.55
2019-01-24T14:13:59.091Z,97322.51
2019-01-24T14:16:29.212Z,97324.54
2019-01-24T14:18:59.388Z,97323.54
2019-01-24T14:21:29.327Z,97326.53
2019-01-24T14:23:59.257Z,97325.78
2019-01-24T14:26:30.065Z,97328.53
2019-01-24T14:29:00.118Z,97333.80
2019-01-24T14:35:21.214Z,97335.89
2019-01-24T14:37:51.424Z,97350.45
2019-01-24T14:40:21.649Z,97357.36
2019-01-24T14:42:51.593Z,97360.95
2019-01-24T14:49:06.182Z,97371.63
2019-01-24T14:51:36.363Z,97372.76
2019-01-24T14:54:06.507Z,97378.08
2019-01-24T14:56:36.687Z,97383.73
2019-01-24T14:59:07.419Z,97385.95
2019-01-24T15:01:37.485Z,97385.66
2019-01-24T15:04:07.576Z,97392.02
2019-01-24T15:06:37.725Z,97386.34
2019-01-24T15:09:09.763Z,97386.59
2019-01-24T15:11:40.493Z,97388.86
2019-01-24T15:14:10.659Z,97392.45
2019-01-24T15:16:40.957Z,97395.20
2019-01-24T15:19:11.854Z,97400.97
2019-01-24T15:21:42.193Z,97399.06
2019-01-24T15:24:12.461Z,97398.66
2019-01-24T15:26:42.482Z,97395.11
2019-01-24T15:29:12.575Z,97398.17
2019-01-24T15:31:42.494Z,97399.27
2019-01-24T15:34:13.860Z,97400.88
2019-01-24T15:36:43.772Z,97402.66
2019-01-24T15:39:14.014Z,97404.13
2019-01-24T15:41:44.475Z,97407.47
2019-01-24T15:44:14.458Z,97405.74
2019-01-24T15:46:44.618Z,97402.87
2019-01-24T15:49:14.613Z,97399.36
2019-01-24T15:51:44.557Z,97411.22
2019-01-24T15:54:14.818Z,97412.91
2019-01-24T15:56:44.823Z,97414.36
2019-01-24T15:59:14.833Z,97416.58
2019-01-24T16:01:45.141Z,97423.73
2019-01-24T16:04:19.789Z,97419.91
2019-01-24T16:06:47.129Z,97429.27
2019-01-24T16:09:17.041Z,97432.12
2019-01-24T16:11:46.981Z,97430.53
2019-01-24T16:14:17.863Z,97434.52
2019-01-24T16:16:48.252Z,97435.88
2019-01-24T16:19:18.249Z,97453.75
2019-01-24T16:21:48.172Z,97452.52
2019-01-24T16:24:18.247Z,97450.40
2019-01-24T16:26:48.188Z,97459.22
2019-01-24T16:29:18.697Z,97457.28
2019-01-24T16:31:49.009Z,97456.04
2019-01-24T16:34:19.753Z,97461.61
2019-01-24T16:36:49.747Z,97466.35
2019-01-24T16:39:20.047Z,97467.83
2019-01-24T16:41:49.976Z,97475.84
2019-01-24T16:44:20.712Z,97481.16
2019-01-24T16:46:50.889Z,97481.28
2019-01-24T17:10:39.600Z,97505.81
2019-01-24T17:23:39.174Z,97516.33
2019-01-24T17:26:09.708Z,97516.44
2019-01-24T17:28:39.980Z,97525.69
2019-01-24T17:31:10.174Z,97528.66
2019-01-24T17:37:24.876Z,97534.66
2019-01-24T17:39:55.150Z,97545.44
2019-01-24T17:42:25.174Z,97543.73
2019-01-24T17:44:55.668Z,97547.47
2019-01-24T17:47:25.997Z,97553.56
2019-01-24T17:49:56.421Z,97551.75
2019-01-24T17:52:26.873Z,97557.18
2019-01-24T17:54:56.834Z,97564.97
2019-01-24T17:57:27.151Z,97566.22
2019-01-24T17:59:57.087Z,97572.91
2019-01-24T18:02:27.093Z,97571.23
2019-01-24T18:04:57.333Z,97572.46
2019-01-24T18:07:30.544Z,97581.30
2019-01-24T18:10:00.522Z,97581.65
2019-01-24T18:16:21.928Z,97581.89
2019-01-24T18:18:52.119Z,97585.13
2019-01-24T18:21:22.048Z,97587.75
2019-01-24T18:23:52.112Z,97595.52
2019-01-24T18:26:22.064Z,97596.22
2019-01-24T18:28:52.612Z,97594.16
2019-01-24T18:31:22.745Z,97594.84
2019-01-24T18:33:52.843Z,97594.30
2019-01-24T18:36:23.752Z,97598.13
2019-01-24T18:38:53.892Z,97601.77
2019-01-24T18:41:23.964Z,97593.86
2019-01-24T18:43:53.887Z,97595.11
2019-01-24T18:46:24.139Z,97595.81
2019-01-24T18:48:54.439Z,97597.27
2019-01-24T18:51:24.789Z,97594.63
2019-01-24T18:53:54.982Z,97599.48
2019-01-24T18:56:25.252Z,97602.88
2019-01-24T18:58:55.242Z,97607.66
2019-01-24T19:01:25.904Z,97609.23
2019-01-24T19:03:56.466Z,97608.75
2019-01-24T19:06:27.863Z,97612.29
2019-01-24T19:08:57.921Z,97618.55
2019-01-24T19:11:28.089Z,97626.70
2019-01-24T19:13:58.520Z,97626.38
2019-01-24T19:16:28.542Z,97622.97
2019-01-24T19:18:58.701Z,97625.55
2019-01-24T19:21:28.621Z,97627.72
2019-01-24T19:24:00.463Z,97626.25
2019-01-24T19:26:30.405Z,97628.06
2019-01-24T19:29:00.346Z,97623.31
2019-01-24T19:31:30.286Z,97632.03
2019-01-24T19:34:00.255Z,97633.28
2019-01-24T19:36:30.720Z,97633.51
2019-01-24T19:39:01.424Z,97641.58
2019-01-24T19:45:19.297Z,97641.67
2019-01-24T19:47:49.518Z,97647.80
2019-01-24T19:50:25.420Z,97647.10
2019-01-24T19:52:55.828Z,97651.62
2019-01-24T19:55:26.605Z,97649.24
2019-01-24T19:57:57.896Z,97652.33
2019-01-24T20:04:19.220Z,97651.53
2019-01-24T20:06:49.317Z,97651.41
2019-01-24T20:09:19.591Z,97652.78
2019-01-24T20:11:49.691Z,97656.16
2019-01-24T20:14:20.121Z,97661.28
2019-01-24T20:16:50.160Z,97657.63
2019-01-24T20:19:20.233Z,97664.64
2019-01-24T20:21:50.424Z,97673.72
2019-01-24T20:24:21.215Z,97674.29
2019-01-24T20:26:51.137Z,97670.00
2019-01-24T20:29:21.325Z,97682.42
2019-01-24T20:31:51.252Z,97685.33
2019-01-24T20:34:21.491Z,97686.43
2019-01-24T20:36:51.917Z,97683.47
2019-01-24T20:39:21.992Z,97685.27
2019-01-24T20:41:52.018Z,97685.83
2019-01-24T20:44:22.189Z,97693.65
2019-01-24T20:46:52.419Z,97695.66
2019-01-24T20:49:22.401Z,97698.70
2019-01-24T20:51:52.870Z,97696.69
2019-01-24T20:55:22.634Z,97701.11
2019-01-24T20:57:53.277Z,97712.57
2019-01-24T21:07:36.596Z,97717.95
2019-01-24T21:10:08.796Z,97717.45
2019-01-24T21:12:39.244Z,97718.80
2019-01-24T21:15:10.642Z,97720.63
2019-01-24T21:17:40.873Z,97725.17
2019-01-24T21:20:14.709Z,97728.61
2019-01-24T21:22:45.060Z,97724.56
2019-01-24T21:29:05.749Z,97734.69
2019-01-24T21:31:37.329Z,97736.08
2019-01-24T21:34:09.112Z,97736.87
2019-01-24T21:36:39.147Z,97733.55
2019-01-24T21:39:10.841Z,97733.48
2019-01-24T21:41:41.180Z,97739.48
2019-01-24T21:44:11.187Z,97739.00
2019-01-24T21:46:41.764Z,97740.66
2019-01-24T21:49:12.893Z,97739.81
2019-01-24T21:51:43.290Z,97734.77
2019-01-24T21:54:13.291Z,97735.93
2019-01-24T21:56:45.994Z,97738.78
2019-01-24T21:59:16.343Z,97739.34
2019-01-24T22:13:13.393Z,97744.77
2019-01-24T22:15:43.443Z,97748.49
2019-01-24T22:18:13.638Z,97747.69
2019-01-24T22:20:44.311Z,97746.70
2019-01-24T22:23:14.502Z,97739.11
2019-01-24T22:25:44.601Z,97754.75
2019-01-24T22:28:14.716Z,97748.45
2019-01-24T22:30:54.503Z,97744.42
2019-01-24T22:33:24.710Z,97751.16
2019-01-24T22:35:55.146Z,97749.30
2019-01-24T22:38:25.177Z,97750.91
2019-01-24T22:40:55.714Z,97741.20
2019-01-24T22:43:26.177Z,97752.88
2019-01-24T22:45:56.429Z,97752.38
2019-01-24T22:48:26.425Z,97746.02
2019-01-24T22:50:56.545Z,97748.31
2019-01-24T22:53:28.619Z,97745.89
2019-01-24T22:55:58.612Z,97745.37
2019-01-24T22:58:28.860Z,97747.53
2019-01-24T23:01:45.481Z,97741.39
2019-01-24T23:04:19.106Z,97742.96
2019-01-24T23:06:49.199Z,97744.42
2019-01-24T23:09:19.282Z,97748.23
2019-01-24T23:11:49.325Z,97746.61
2019-01-24T23:14:19.972Z,97746.66
2019-01-24T23:16:50.718Z,97753.43
2019-01-24T23:19:20.783Z,97745.87
2019-01-24T23:21:50.706Z,97746.37
2019-01-24T23:24:20.995Z,97744.36
2019-01-24T23:38:20.946Z,97754.74
2019-01-24T23:40:51.432Z,97758.35
2019-01-24T23:49:59.015Z,97759.41
2019-01-24T23:52:28.995Z,97766.27
2019-01-24T23:54:59.291Z,97763.62
2019-01-24T23:57:29.991Z,97763.62
